createdAt,value
2023-02-06T00:01:46.882Z,98914.00
2023-02-06T00:04:21.434Z,98913.00
2023-02-06T00:06:48.260Z,98932.00
2023-02-06T00:09:15.087Z,98928.00
2023-02-06T00:11:41.918Z,98933.00
2023-02-06T00:14:08.777Z,98934.00
2023-02-06T00:16:36.219Z,98940.00
2023-02-06T00:19:03.642Z,98937.00
2023-02-06T00:21:33.577Z,98935.00
2023-02-06T00:24:02.652Z,98937.00
2023-02-06T00:26:31.271Z,98951.00
2023-02-06T00:28:58.237Z,98934.00
2023-02-06T00:31:27.033Z,98954.00
2023-02-06T00:33:53.971Z,98963.00
2023-02-06T00:36:20.826Z,98952.00
2023-02-06T00:38:47.610Z,98951.00
2023-02-06T00:41:15.774Z,98950.00
2023-02-06T00:43:43.398Z,98936.00
2023-02-06T00:46:10.765Z,98945.00
2023-02-06T00:48:38.160Z,98939.00
2023-02-06T00:51:05.145Z,98948.00
2023-02-06T00:53:32.247Z,98946.00
2023-02-06T00:55:59.074Z,98946.00
2023-02-06T00:58:25.861Z,98943.00
2023-02-06T01:00:55.745Z,98947.00
2023-02-06T01:03:22.609Z,98944.00
2023-02-06T01:05:54.678Z,98947.00
2023-02-06T01:08:21.423Z,98949.00
2023-02-06T01:10:48.532Z,98934.00
2023-02-06T01:13:15.352Z,98938.00
2023-02-06T01:15:42.238Z,98938.00
2023-02-06T01:18:14.934Z,98922.00
2023-02-06T01:20:41.593Z,98921.00
2023-02-06T01:23:08.574Z,98940.00
2023-02-06T01:25:38.413Z,98920.00
2023-02-06T01:28:05.266Z,98928.00
2023-02-06T01:30:34.885Z,98924.00
2023-02-06T01:33:01.705Z,98917.00
2023-02-06T01:35:29.616Z,98923.00
2023-02-06T01:37:56.393Z,98936.00
2023-02-06T01:40:23.254Z,98929.00
2023-02-06T01:42:52.440Z,98938.00
2023-02-06T01:45:42.935Z,98938.00
2023-02-06T01:48:17.971Z,98927.00
2023-02-06T01:50:52.649Z,98933.00
2023-02-06T01:53:21.578Z,98930.00
2023-02-06T01:55:51.541Z,98914.00
2023-02-06T01:58:34.447Z,98928.00
2023-02-06T02:01:01.883Z,98921.00
2023-02-06T02:03:36.033Z,98921.00
2023-02-06T02:06:14.324Z,98934.00
2023-02-06T02:08:48.292Z,98924.00
2023-02-06T02:11:30.660Z,98920.00
2023-02-06T02:13:57.868Z,98942.00
2023-02-06T02:17:01.233Z,98937.00
2023-02-06T02:19:50.888Z,98933.00
2023-02-06T02:22:55.832Z,98943.00
2023-02-06T02:26:03.003Z,98947.00
2023-02-06T02:29:28.606Z,98953.00
2023-02-06T02:32:47.979Z,98961.00
2023-02-06T02:35:51.480Z,98942.00
2023-02-06T02:38:45.733Z,98952.00
2023-02-06T02:41:17.269Z,98940.00
2023-02-06T02:44:05.065Z,98943.00
2023-02-06T02:46:45.361Z,98954.00
2023-02-06T02:49:25.315Z,98956.00
2023-02-06T02:51:52.923Z,98950.00
2023-02-06T02:54:20.029Z,98950.00
2023-02-06T02:56:46.850Z,98957.00
2023-02-06T02:59:45.281Z,98966.00
2023-02-06T03:02:47.427Z,98961.00
2023-02-06T03:05:20.260Z,98949.00
2023-02-06T03:07:46.957Z,98961.00
2023-02-06T03:10:27.858Z,98964.00
2023-02-06T03:13:16.329Z,98952.00
2023-02-06T03:15:55.106Z,98957.00
2023-02-06T03:18:32.737Z,98943.00
2023-02-06T03:21:02.505Z,98951.00
2023-02-06T03:23:37.547Z,98938.00
2023-02-06T03:26:08.470Z,98937.00
2023-02-06T03:28:44.962Z,98940.00
2023-02-06T03:31:37.255Z,98923.00
2023-02-06T03:34:31.430Z,98937.00
2023-02-06T03:36:58.377Z,98942.00
2023-02-06T03:39:25.559Z,98918.00
2023-02-06T03:41:56.036Z,98932.00
2023-02-06T03:44:28.185Z,98928.00
2023-02-06T03:46:56.247Z,98923.00
2023-02-06T03:49:27.648Z,98932.00
2023-02-06T03:52:04.964Z,98913.00
2023-02-06T03:54:33.767Z,98911.00
2023-02-06T03:57:04.270Z,98915.00
2023-02-06T03:59:31.815Z,98907.00
2023-02-06T04:02:02.915Z,98894.00
2023-02-06T04:04:35.196Z,98888.00
2023-02-06T04:07:31.420Z,98879.00
2023-02-06T04:09:58.221Z,98876.00
2023-02-06T04:12:25.613Z,98885.00
2023-02-06T04:14:53.291Z,98886.00
2023-02-06T04:17:38.463Z,98885.00
2023-02-06T04:20:08.236Z,98868.00
2023-02-06T04:22:35.061Z,98873.00
2023-02-06T04:25:01.886Z,98870.00
2023-02-06T04:27:28.797Z,98873.00
2023-02-06T04:29:55.568Z,98887.00
2023-02-06T04:32:22.344Z,98891.00
2023-02-06T04:34:49.143Z,98892.00
2023-02-06T04:37:15.922Z,98877.00
2023-02-06T04:39:42.704Z,98895.00
2023-02-06T04:42:09.583Z,98881.00
2023-02-06T04:44:38.480Z,98873.00
2023-02-06T04:47:06.281Z,98879.00
2023-02-06T04:49:33.506Z,98883.00
2023-02-06T04:52:03.457Z,98869.00
2023-02-06T04:54:32.630Z,98864.00
2023-02-06T04:56:59.556Z,98869.00
2023-02-06T04:59:26.696Z,98875.00
2023-02-06T05:01:53.882Z,98859.00
2023-02-06T05:04:20.674Z,98848.00
2023-02-06T05:06:47.439Z,98855.00
2023-02-06T05:09:14.184Z,98864.00
2023-02-06T05:11:41.171Z,98866.00
2023-02-06T05:14:07.945Z,98871.00
2023-02-06T05:16:34.713Z,98857.00
2023-02-06T05:19:01.646Z,98879.00
2023-02-06T05:21:28.711Z,98875.00
2023-02-06T05:23:55.556Z,98869.00
2023-02-06T05:26:22.542Z,98865.00
2023-02-06T05:28:49.334Z,98888.00
2023-02-06T05:31:19.791Z,98886.00
2023-02-06T05:33:52.853Z,98893.00
2023-02-06T05:36:21.158Z,98892.00
2023-02-06T05:38:49.110Z,98915.00
2023-02-06T05:41:16.962Z,98911.00
2023-02-06T05:43:43.839Z,98916.00
2023-02-06T05:46:12.802Z,98920.00
2023-02-06T05:48:40.176Z,98928.00
2023-02-06T05:51:07.274Z,98919.00
2023-02-06T05:53:36.119Z,98919.00
2023-02-06T05:56:03.242Z,98917.00
2023-02-06T05:58:30.088Z,98916.00
2023-02-06T06:00:57.116Z,98911.00
2023-02-06T06:03:24.377Z,98906.00
2023-02-06T06:05:53.362Z,98915.00
2023-02-06T06:08:20.697Z,98927.00
2023-02-06T06:10:51.916Z,98935.00
2023-02-06T06:13:18.996Z,98919.00
2023-02-06T06:15:45.926Z,98922.00
2023-02-06T06:18:12.971Z,98914.00
2023-02-06T06:20:39.790Z,98906.00
2023-02-06T06:23:06.581Z,98908.00
2023-02-06T06:25:33.587Z,98911.00
2023-02-06T06:28:00.636Z,98926.00
2023-02-06T06:30:27.731Z,98925.00
2023-02-06T06:32:54.588Z,98917.00
2023-02-06T06:35:21.435Z,98904.00
2023-02-06T06:37:48.195Z,98899.00
2023-02-06T06:40:14.953Z,98902.00
2023-02-06T06:42:42.034Z,98903.00
2023-02-06T06:45:09.293Z,98895.00
2023-02-06T06:47:36.075Z,98906.00
2023-02-06T06:50:02.955Z,98915.00
2023-02-06T06:52:29.888Z,98911.00
2023-02-06T06:54:56.683Z,98903.00
2023-02-06T06:57:24.246Z,98898.00
2023-02-06T06:59:51.154Z,98905.00
2023-02-06T07:02:18.089Z,98915.00
2023-02-06T07:04:45.101Z,98907.00
2023-02-06T07:07:11.927Z,98910.00
2023-02-06T07:09:38.827Z,98912.00
2023-02-06T07:12:06.095Z,98912.00
2023-02-06T07:14:33.042Z,98910.00
2023-02-06T07:17:01.622Z,98921.00
2023-02-06T07:19:28.502Z,98911.00
2023-02-06T07:21:55.342Z,98919.00
2023-02-06T07:24:22.179Z,98921.00
2023-02-06T07:26:49.117Z,98913.00
2023-02-06T07:29:15.910Z,98906.00
2023-02-06T07:31:42.824Z,98911.00
2023-02-06T07:34:09.727Z,98923.00
2023-02-06T07:36:37.345Z,98914.00
2023-02-06T07:39:04.927Z,98915.00
2023-02-06T07:41:31.802Z,98912.00
2023-02-06T07:43:58.663Z,98907.00
2023-02-06T07:46:25.752Z,98907.00
2023-02-06T07:48:52.612Z,98901.00
2023-02-06T07:51:19.501Z,98899.00
2023-02-06T07:53:46.488Z,98894.00
2023-02-06T07:56:17.400Z,98897.00
2023-02-06T07:58:44.876Z,98895.00
2023-02-06T08:01:11.696Z,98891.00
2023-02-06T08:03:38.807Z,98888.00
2023-02-06T08:06:14.761Z,98883.00
2023-02-06T08:08:42.608Z,98882.00
2023-02-06T08:11:14.928Z,98890.00
2023-02-06T08:13:42.928Z,98879.00
2023-02-06T08:16:19.528Z,98878.00
2023-02-06T08:18:47.301Z,98875.00
2023-02-06T08:21:21.492Z,98881.00
2023-02-06T08:23:56.251Z,98883.00
2023-02-06T08:26:24.703Z,98873.00
2023-02-06T08:28:52.861Z,98877.00
2023-02-06T08:31:23.994Z,98881.00
2023-02-06T08:33:51.345Z,98878.00
2023-02-06T08:36:20.495Z,98872.00
2023-02-06T08:38:48.581Z,98861.00
2023-02-06T08:41:24.646Z,98859.00
2023-02-06T08:43:55.371Z,98865.00
2023-02-06T08:46:24.300Z,98867.00
2023-02-06T08:49:04.765Z,98868.00
2023-02-06T08:51:34.082Z,98876.00
2023-02-06T08:54:04.585Z,98872.00
2023-02-06T08:56:33.725Z,98878.00
2023-02-06T08:59:00.944Z,98887.00
2023-02-06T09:01:30.623Z,98882.00
2023-02-06T09:04:00.670Z,98885.00
2023-02-06T09:06:28.243Z,98893.00
2023-02-06T09:08:57.317Z,98876.00
2023-02-06T09:11:26.330Z,98878.00
2023-02-06T09:14:00.330Z,98877.00
2023-02-06T09:16:28.994Z,98878.00
2023-02-06T09:19:01.178Z,98872.00
2023-02-06T09:21:31.213Z,98876.00
2023-02-06T09:24:02.627Z,98867.00
2023-02-06T09:26:34.275Z,98873.00
2023-02-06T09:29:07.536Z,98868.00
2023-02-06T09:31:38.052Z,98864.00
2023-02-06T09:34:06.117Z,98861.00
2023-02-06T09:36:35.017Z,98861.00
2023-02-06T09:39:06.171Z,98864.00
2023-02-06T09:41:54.170Z,98861.00
2023-02-06T09:44:38.401Z,98861.00
2023-02-06T09:47:30.333Z,98843.00
2023-02-06T09:50:58.553Z,98856.00
2023-02-06T09:53:49.112Z,98852.00
2023-02-06T09:56:43.657Z,98842.00
2023-02-06T09:59:31.256Z,98843.00
2023-02-06T10:02:44.936Z,98842.00
2023-02-06T10:05:39.766Z,98832.00
2023-02-06T10:08:28.118Z,98816.00
2023-02-06T10:10:59.657Z,98817.00
2023-02-06T10:14:06.886Z,98804.00
2023-02-06T10:16:58.957Z,98810.00
2023-02-06T10:19:50.639Z,98787.00
2023-02-06T10:22:48.743Z,98788.00
2023-02-06T10:25:18.612Z,98798.00
2023-02-06T10:27:48.975Z,98786.00
2023-02-06T10:30:35.808Z,98798.00
2023-02-06T10:33:25.281Z,98795.00
2023-02-06T10:36:05.809Z,98786.00
2023-02-06T10:38:54.171Z,98791.00
2023-02-06T10:41:49.034Z,98784.00
2023-02-06T10:44:51.391Z,98784.00
2023-02-06T10:47:48.990Z,98774.00
2023-02-06T10:50:31.305Z,98782.00
2023-02-06T10:53:05.459Z,98776.00
2023-02-06T10:55:49.595Z,98765.00
2023-02-06T10:58:23.973Z,98759.00
2023-02-06T11:00:52.206Z,98753.00
2023-02-06T11:03:28.105Z,98765.00
2023-02-06T11:05:55.360Z,98761.00
2023-02-06T11:08:29.892Z,98759.00
2023-02-06T11:10:57.365Z,98754.00
2023-02-06T11:13:30.579Z,98751.00
2023-02-06T11:16:13.592Z,98746.00
2023-02-06T11:18:45.366Z,98744.00
2023-02-06T11:21:15.353Z,98731.00
2023-02-06T11:23:43.076Z,98739.00
2023-02-06T11:26:20.154Z,98734.00
2023-02-06T11:28:55.706Z,98718.00
2023-02-06T11:31:45.125Z,98728.00
2023-02-06T11:34:51.034Z,98714.00
2023-02-06T11:37:40.925Z,98719.00
2023-02-06T11:40:28.207Z,98730.00
2023-02-06T11:43:24.419Z,98749.00
2023-02-06T11:46:11.433Z,98758.00
2023-02-06T11:48:43.037Z,98750.00
2023-02-06T11:51:10.702Z,98757.00
2023-02-06T11:53:38.665Z,98741.00
2023-02-06T11:56:18.762Z,98742.00
2023-02-06T11:58:46.438Z,98741.00
2023-02-06T12:01:22.271Z,98737.00
2023-02-06T12:03:55.251Z,98734.00
2023-02-06T12:06:30.729Z,98720.00
2023-02-06T12:09:05.587Z,98716.00
2023-02-06T12:11:52.297Z,98705.00
2023-02-06T12:14:40.369Z,98707.00
2023-02-06T12:17:20.856Z,98702.00
2023-02-06T12:19:57.463Z,98701.00
2023-02-06T12:22:26.749Z,98705.00
2023-02-06T12:25:00.092Z,98700.00
2023-02-06T12:27:39.269Z,98702.00
2023-02-06T12:30:51.375Z,98712.00
2023-02-06T12:33:25.606Z,98706.00
2023-02-06T12:35:59.474Z,98700.00
2023-02-06T12:38:38.008Z,98707.00
2023-02-06T12:41:42.307Z,98722.00
2023-02-06T12:44:30.326Z,98709.00
2023-02-06T12:47:07.293Z,98693.00
2023-02-06T12:50:07.114Z,98688.00
2023-02-06T12:52:41.868Z,98690.00
2023-02-06T12:55:25.465Z,98698.00
2023-02-06T12:57:53.676Z,98682.00
2023-02-06T13:00:29.590Z,98696.00
2023-02-06T13:03:22.914Z,98690.00
2023-02-06T13:06:11.306Z,98679.00
2023-02-06T13:09:06.793Z,98677.00
2023-02-06T13:11:40.650Z,98683.00
2023-02-06T13:14:26.931Z,98674.00
2023-02-06T13:17:11.660Z,98667.00
2023-02-06T13:19:41.706Z,98674.00
2023-02-06T13:22:08.401Z,98676.00
2023-02-06T13:24:40.559Z,98668.00
2023-02-06T13:27:07.284Z,98675.00
2023-02-06T13:29:38.536Z,98671.00
2023-02-06T13:32:11.794Z,98673.00
2023-02-06T13:34:43.485Z,98667.00
2023-02-06T13:37:37.816Z,98660.00
2023-02-06T13:40:23.376Z,98660.00
2023-02-06T13:43:13.787Z,98658.00
2023-02-06T13:45:51.007Z,98655.00
2023-02-06T13:48:44.974Z,98652.00
2023-02-06T13:51:28.541Z,98656.00
2023-02-06T13:54:37.854Z,98654.00
2023-02-06T13:57:25.759Z,98656.00
2023-02-06T14:00:14.534Z,98660.00
2023-02-06T14:02:44.706Z,98661.00
2023-02-06T14:05:21.823Z,98652.00
2023-02-06T14:08:14.332Z,98647.00
2023-02-06T14:11:30.443Z,98658.00
2023-02-06T14:14:28.877Z,98645.00
2023-02-06T14:17:26.254Z,98648.00
2023-02-06T14:20:20.678Z,98649.00
2023-02-06T14:23:20.566Z,98648.00
2023-02-06T14:26:10.380Z,98645.00
2023-02-06T14:28:53.062Z,98647.00
2023-02-06T14:31:46.535Z,98644.00
2023-02-06T14:35:21.731Z,98668.00
2023-02-06T14:38:20.609Z,98673.00
2023-02-06T14:40:54.979Z,98676.00
2023-02-06T14:43:32.347Z,98672.00
2023-02-06T14:46:07.971Z,98667.00
2023-02-06T14:48:57.284Z,98684.00
2023-02-06T14:51:35.661Z,98679.00
2023-02-06T14:54:08.609Z,98669.00
2023-02-06T14:56:37.180Z,98661.00
2023-02-06T14:59:14.412Z,98661.00
2023-02-06T15:01:47.584Z,98669.00
2023-02-06T15:04:26.397Z,98663.00
2023-02-06T15:07:00.841Z,98672.00
2023-02-06T15:09:44.454Z,98660.00
2023-02-06T15:12:23.861Z,98664.00
2023-02-06T15:15:02.975Z,98677.00
2023-02-06T15:17:31.272Z,98677.00
2023-02-06T15:20:31.601Z,98677.00
2023-02-06T15:23:17.238Z,98678.00
2023-02-06T15:25:59.271Z,98686.00
2023-02-06T15:28:30.857Z,98682.00
2023-02-06T15:31:00.389Z,98678.00
2023-02-06T15:33:35.824Z,98689.00
2023-02-06T15:36:04.644Z,98682.00
2023-02-06T15:38:33.481Z,98693.00
2023-02-06T15:41:05.857Z,98687.00
2023-02-06T15:43:34.419Z,98672.00
2023-02-06T15:46:04.756Z,98693.00
2023-02-06T15:48:43.643Z,98683.00
2023-02-06T15:51:49.718Z,98687.00
2023-02-06T15:54:22.939Z,98712.00
2023-02-06T15:57:01.373Z,98719.00
2023-02-06T15:59:31.488Z,98706.00
2023-02-06T16:01:58.836Z,98726.00
2023-02-06T16:04:40.690Z,98726.00
2023-02-06T16:07:20.750Z,98731.00
2023-02-06T16:10:04.178Z,98726.00
2023-02-06T16:12:40.637Z,98724.00
2023-02-06T16:15:39.965Z,98732.00
2023-02-06T16:18:25.874Z,98735.00
2023-02-06T16:21:15.667Z,98730.00
2023-02-06T16:24:16.415Z,98736.00
2023-02-06T16:26:52.204Z,98732.00
2023-02-06T16:29:31.494Z,98732.00
2023-02-06T16:32:33.539Z,98745.00
2023-02-06T16:35:02.335Z,98739.00
2023-02-06T16:37:31.155Z,98746.00
2023-02-06T16:39:58.169Z,98755.00
2023-02-06T16:42:33.508Z,98758.00
2023-02-06T16:45:07.737Z,98774.00
2023-02-06T16:47:34.609Z,98763.00
2023-02-06T16:50:01.782Z,98783.00
2023-02-06T16:52:32.770Z,98773.00
2023-02-06T16:55:01.449Z,98777.00
2023-02-06T16:57:35.565Z,98777.00
2023-02-06T17:00:12.594Z,98780.00
2023-02-06T17:02:39.475Z,98792.00
2023-02-06T17:05:06.863Z,98799.00
2023-02-06T17:07:35.309Z,98796.00
2023-02-06T17:10:04.202Z,98802.00
2023-02-06T17:12:31.395Z,98800.00
2023-02-06T17:15:00.043Z,98809.00
2023-02-06T17:17:27.368Z,98803.00
2023-02-06T17:19:54.384Z,98813.00
2023-02-06T17:22:21.815Z,98814.00
2023-02-06T17:24:49.121Z,98819.00
2023-02-06T17:27:20.583Z,98811.00
2023-02-06T17:29:49.946Z,98825.00
2023-02-06T17:32:22.463Z,98824.00
2023-02-06T17:34:54.539Z,98811.00
2023-02-06T17:37:22.374Z,98822.00
2023-02-06T17:39:51.902Z,98816.00
2023-02-06T17:42:22.204Z,98811.00
2023-02-06T17:44:49.408Z,98808.00
2023-02-06T17:47:17.294Z,98815.00
2023-02-06T17:49:44.767Z,98819.00
2023-02-06T17:52:12.600Z,98826.00
2023-02-06T17:54:39.773Z,98819.00
2023-02-06T17:57:07.565Z,98816.00
2023-02-06T17:59:34.629Z,98828.00
2023-02-06T18:02:01.540Z,98840.00
2023-02-06T18:04:30.453Z,98835.00
2023-02-06T18:06:57.311Z,98843.00
2023-02-06T18:09:24.453Z,98851.00
2023-02-06T18:11:52.052Z,98845.00
2023-02-06T18:14:19.153Z,98848.00
2023-02-06T18:16:47.019Z,98844.00
2023-02-06T18:19:14.116Z,98847.00
2023-02-06T18:21:40.916Z,98835.00
2023-02-06T18:24:08.747Z,98848.00
2023-02-06T18:26:35.663Z,98844.00
2023-02-06T18:29:05.768Z,98849.00
2023-02-06T18:31:35.707Z,98844.00
2023-02-06T18:34:07.750Z,98843.00
2023-02-06T18:36:37.028Z,98836.00
2023-02-06T18:39:05.767Z,98845.00
2023-02-06T18:41:51.238Z,98841.00
2023-02-06T18:44:18.131Z,98877.00
2023-02-06T18:46:45.018Z,98875.00
2023-02-06T18:49:11.957Z,98884.00
2023-02-06T18:51:38.760Z,98865.00
2023-02-06T18:54:07.676Z,98866.00
2023-02-06T18:56:35.550Z,98861.00
2023-02-06T18:59:03.936Z,98861.00
2023-02-06T19:01:32.218Z,98860.00
2023-02-06T19:03:59.531Z,98862.00
2023-02-06T19:06:36.513Z,98855.00
2023-02-06T19:09:08.390Z,98861.00
2023-02-06T19:11:36.585Z,98858.00
2023-02-06T19:14:07.095Z,98856.00
2023-02-06T19:16:38.773Z,98864.00
2023-02-06T19:19:07.691Z,98869.00
2023-02-06T19:21:35.934Z,98862.00
2023-02-06T19:24:03.896Z,98867.00
2023-02-06T19:26:31.098Z,98875.00
2023-02-06T19:28:59.851Z,98860.00
2023-02-06T19:31:26.702Z,98864.00
2023-02-06T19:33:57.997Z,98862.00
2023-02-06T19:36:26.756Z,98863.00
2023-02-06T19:38:59.457Z,98875.00
2023-02-06T19:41:29.085Z,98875.00
2023-02-06T19:43:57.783Z,98875.00
2023-02-06T19:46:27.246Z,98877.00
2023-02-06T19:48:56.593Z,98872.00
2023-02-06T19:51:30.910Z,98863.00
2023-02-06T19:53:59.611Z,98864.00
2023-02-06T19:56:40.371Z,98859.00
2023-02-06T19:59:20.351Z,98852.00
2023-02-06T20:01:51.092Z,98861.00
2023-02-06T20:04:20.563Z,98871.00
2023-02-06T20:06:47.483Z,98863.00
2023-02-06T20:09:15.981Z,98872.00
2023-02-06T20:11:43.645Z,98865.00
2023-02-06T20:14:12.266Z,98850.00
2023-02-06T20:16:41.356Z,98850.00
2023-02-06T20:19:18.911Z,98853.00
2023-02-06T20:21:50.300Z,98864.00
2023-02-06T20:24:22.172Z,98865.00
2023-02-06T20:26:55.936Z,98860.00
2023-02-06T20:29:34.125Z,98877.00
2023-02-06T20:32:01.567Z,98883.00
2023-02-06T20:34:28.863Z,98874.00
2023-02-06T20:36:55.957Z,98871.00
2023-02-06T20:39:23.480Z,98877.00
2023-02-06T20:41:50.742Z,98877.00
2023-02-06T20:44:19.174Z,98878.00
2023-02-06T20:46:46.709Z,98875.00
2023-02-06T20:49:27.522Z,98872.00
2023-02-06T20:51:54.735Z,98886.00
2023-02-06T20:54:22.063Z,98888.00
2023-02-06T20:56:49.857Z,98887.00
2023-02-06T20:59:19.419Z,98895.00
2023-02-06T21:01:46.579Z,98903.00
2023-02-06T21:04:16.112Z,98900.00
2023-02-06T21:06:43.150Z,98899.00
2023-02-06T21:09:11.303Z,98911.00
2023-02-06T21:11:45.942Z,98913.00
2023-02-06T21:14:14.358Z,98921.00
2023-02-06T21:16:42.347Z,98920.00
2023-02-06T21:19:11.808Z,98931.00
2023-02-06T21:21:39.515Z,98941.00
2023-02-06T21:24:08.593Z,98942.00
2023-02-06T21:26:36.786Z,98945.00
2023-02-06T21:29:08.861Z,98948.00
2023-02-06T21:31:38.628Z,98958.00
2023-02-06T21:34:15.582Z,98949.00
2023-02-06T21:36:42.606Z,98950.00
2023-02-06T21:39:12.055Z,98960.00
2023-02-06T21:41:38.988Z,98959.00
2023-02-06T21:44:06.197Z,98971.00
2023-02-06T21:46:33.397Z,98973.00
2023-02-06T21:49:00.304Z,98970.00
2023-02-06T21:51:27.233Z,98973.00
2023-02-06T21:53:54.099Z,98965.00
2023-02-06T21:56:25.833Z,98962.00
2023-02-06T21:58:53.058Z,98966.00
2023-02-06T22:01:29.231Z,98979.00
2023-02-06T22:03:57.189Z,98990.00
2023-02-06T22:06:24.405Z,98985.00
2023-02-06T22:08:53.187Z,98981.00
2023-02-06T22:11:26.985Z,98980.00
2023-02-06T22:13:59.882Z,98986.00
2023-02-06T22:16:28.085Z,98995.00
2023-02-06T22:18:55.769Z,99002.00
2023-02-06T22:21:26.276Z,98997.00
2023-02-06T22:23:57.888Z,99006.00
2023-02-06T22:26:25.343Z,99013.00
2023-02-06T22:28:52.234Z,99023.00
2023-02-06T22:31:26.519Z,99025.00
2023-02-06T22:33:54.300Z,99016.00
2023-02-06T22:36:25.117Z,99019.00
2023-02-06T22:39:01.939Z,99024.00
2023-02-06T22:41:30.062Z,99034.00
2023-02-06T22:43:56.974Z,99040.00
2023-02-06T22:46:38.494Z,99044.00
2023-02-06T22:49:07.162Z,99044.00
2023-02-06T22:51:35.599Z,99043.00
2023-02-06T22:54:03.135Z,99058.00
2023-02-06T22:56:36.249Z,99075.00
2023-02-06T22:59:20.740Z,99072.00
2023-02-06T23:01:59.608Z,99076.00
2023-02-06T23:04:30.964Z,99085.00
2023-02-06T23:06:58.009Z,99079.00
2023-02-06T23:09:32.862Z,99077.00
2023-02-06T23:12:01.968Z,99070.00
2023-02-06T23:14:32.042Z,99066.00
2023-02-06T23:17:04.159Z,99060.00
2023-02-06T23:19:32.502Z,99065.00
2023-02-06T23:22:00.122Z,99057.00
2023-02-06T23:24:28.278Z,99048.00
2023-02-06T23:26:56.136Z,99037.00
2023-02-06T23:29:24.343Z,99034.00
2023-02-06T23:31:52.061Z,99023.00
2023-02-06T23:34:23.517Z,99038.00
2023-02-06T23:36:52.221Z,99039.00
2023-02-06T23:39:19.333Z,99037.00
2023-02-06T23:41:46.331Z,99027.00
2023-02-06T23:44:13.401Z,99056.00
2023-02-06T23:46:41.676Z,99058.00
2023-02-06T23:49:09.317Z,99053.00
2023-02-06T23:51:38.196Z,99050.00
2023-02-06T23:54:07.270Z,99051.00
2023-02-06T23:56:34.589Z,99055.00
2023-02-06T23:59:02.929Z,99050.00
